createdAt,value
2022-11-18T00:00:02.770Z,0.3
2022-11-18T00:20:02.412Z,0.3
2022-11-18T00:40:02.852Z,0.1
2022-11-18T01:00:02.144Z,-0.1
2022-11-18T01:20:02.942Z,-0.3
2022-11-18T01:40:02.395Z,-0.3
2022-11-18T02:00:02.758Z,-0.4
2022-11-18T02:20:02.585Z,-0.5
2022-11-18T02:40:03.217Z,-0.5
2022-11-18T03:00:02.630Z,-0.6
2022-11-18T03:20:02.668Z,-0.6
2022-11-18T03:40:03.253Z,-0.9
2022-11-18T04:00:02.629Z,-1.1
2022-11-18T04:20:02.638Z,-1.2
2022-11-18T04:40:03.171Z,-1.3
2022-11-18T05:00:02.495Z,-1.4
2022-11-18T05:20:03.145Z,-1.4
2022-11-18T05:40:04.468Z,-1.5
2022-11-18T06:00:02.782Z,-1.5
2022-11-18T06:20:02.189Z,-1.6
2022-11-18T06:40:02.662Z,-1.8
2022-11-18T07:00:03.090Z,-2
2022-11-18T07:20:02.503Z,-1.9
2022-11-18T07:40:02.863Z,-2
2022-11-18T08:00:04.754Z,-1.9
2022-11-18T08:20:02.836Z,-1.9
2022-11-18T08:40:02.525Z,-1.9
2022-11-18T09:00:03.393Z,-2.1
2022-11-18T09:20:02.221Z,-2.1
2022-11-18T09:40:02.938Z,-2
2022-11-18T10:00:02.520Z,-2
2022-11-18T10:20:02.356Z,-2.1
2022-11-18T10:40:02.870Z,-2.1
2022-11-18T11:00:02.613Z,-1.9
2022-11-18T11:20:02.452Z,-1.9
2022-11-18T11:40:02.853Z,-1.5
2022-11-18T12:00:02.604Z,-1.5
2022-11-18T12:20:02.856Z,-1.5
2022-11-18T12:40:02.489Z,-1.4
2022-11-18T13:00:03.667Z,-1.4
2022-11-18T13:20:02.761Z,-1.4
2022-11-18T13:40:03.174Z,-1.1
2022-11-18T14:00:02.809Z,-0.9
2022-11-18T14:20:02.569Z,-1.2
2022-11-18T14:40:03.002Z,-1.6
2022-11-18T15:00:02.848Z,-1.8
2022-11-18T15:20:02.631Z,-1.8
2022-11-18T15:40:02.448Z,-1.9
2022-11-18T16:00:03.404Z,-1.9
2022-11-18T16:20:02.832Z,-2.1
2022-11-18T16:40:02.464Z,-2.3
2022-11-18T17:00:04.513Z,-2.4
2022-11-18T17:20:03.111Z,-2.7
2022-11-18T17:40:02.821Z,-2.9
2022-11-18T18:00:02.306Z,-3.1
2022-11-18T18:20:03.449Z,-3.4
2022-11-18T18:40:02.944Z,-3.6
2022-11-18T19:00:02.708Z,-3.8
2022-11-18T19:20:02.742Z,-4
2022-11-18T19:40:04.266Z,-4.2
2022-11-18T20:00:03.295Z,-4.3
2022-11-18T20:20:03.150Z,-4.5
2022-11-18T20:40:03.023Z,-4.6
2022-11-18T21:00:02.535Z,-4.8
2022-11-18T21:20:03.241Z,-5
2022-11-18T21:40:02.808Z,-5.2
2022-11-18T22:00:02.447Z,-5.3
2022-11-18T22:20:02.343Z,-5.5
2022-11-18T22:40:02.982Z,-5.6
2022-11-18T23:00:02.606Z,-5.7
2022-11-18T23:20:02.358Z,-5.9
2022-11-18T23:40:02.886Z,-6.1
